createdAt,value
2023-02-20T00:01:50.553Z,99646.06
2023-02-20T00:04:19.488Z,99645.99
2023-02-20T00:06:48.514Z,99648.31
2023-02-20T00:09:17.440Z,99643.55
2023-02-20T00:11:49.251Z,99645.98
2023-02-20T00:14:23.979Z,99647.58
2023-02-20T00:16:52.618Z,99647.54
2023-02-20T00:19:25.436Z,99648.18
2023-02-20T00:21:55.382Z,99648.00
2023-02-20T00:24:28.069Z,99646.32
2023-02-20T00:26:54.779Z,99644.73
2023-02-20T00:29:24.106Z,99644.98
2023-02-20T00:31:55.364Z,99645.73
2023-02-20T00:34:26.420Z,99643.17
2023-02-20T00:36:54.778Z,99647.48
2023-02-20T00:39:21.472Z,99646.52
2023-02-20T00:41:51.125Z,99645.66
2023-02-20T00:44:20.100Z,99642.17
2023-02-20T00:46:48.807Z,99641.10
2023-02-20T00:49:23.850Z,99642.83
2023-02-20T00:51:51.835Z,99636.42
2023-02-20T00:54:18.552Z,99635.25
2023-02-20T00:56:45.247Z,99633.46
2023-02-20T00:59:12.223Z,99634.60
2023-02-20T01:01:40.315Z,99633.14
2023-02-20T01:04:07.400Z,99635.66
2023-02-20T01:06:37.291Z,99640.09
2023-02-20T01:09:07.436Z,99643.64
2023-02-20T01:11:34.012Z,99646.95
2023-02-20T01:14:00.435Z,99643.80
2023-02-20T01:16:29.072Z,99646.30
2023-02-20T01:18:56.508Z,99648.54
2023-02-20T01:21:26.420Z,99647.77
2023-02-20T01:23:52.900Z,99646.55
2023-02-20T01:26:21.594Z,99646.98
2023-02-20T01:28:49.142Z,99644.77
2023-02-20T01:31:15.886Z,99646.37
2023-02-20T01:33:43.894Z,99645.65
2023-02-20T01:36:15.162Z,99647.86
2023-02-20T01:38:43.701Z,99648.87
2023-02-20T01:41:10.678Z,99653.77
2023-02-20T01:43:37.504Z,99652.79
2023-02-20T01:46:28.790Z,99654.76
2023-02-20T09:59:22.897Z,99641.39
2023-02-20T10:02:08.367Z,99641.86
2023-02-20T10:04:43.473Z,99634.02
2023-02-20T10:07:25.748Z,99630.23
2023-02-20T10:09:52.506Z,99626.15
2023-02-20T10:12:31.182Z,99620.20
2023-02-20T10:15:24.920Z,99623.03
2023-02-20T10:18:04.016Z,99623.89
2023-02-20T10:20:39.185Z,99620.20
2023-02-20T10:23:44.381Z,99619.20
2023-02-20T10:26:18.978Z,99609.30
2023-02-20T10:28:50.842Z,99609.77
2023-02-20T10:31:33.475Z,99607.16
2023-02-20T10:34:15.524Z,99607.11
2023-02-20T10:36:48.124Z,99598.68
2023-02-20T10:39:19.861Z,99592.11
2023-02-20T10:41:56.127Z,99587.55
2023-02-20T10:44:25.369Z,99575.68
2023-02-20T10:46:58.381Z,99569.58
2023-02-20T10:49:44.979Z,99572.32
2023-02-20T10:52:31.714Z,99579.95
2023-02-20T10:55:14.967Z,99572.19
2023-02-20T10:57:45.785Z,99564.96
2023-02-20T11:00:17.946Z,99565.02
2023-02-20T11:02:47.538Z,99560.88
2023-02-20T11:05:20.328Z,99561.53
2023-02-20T11:07:50.762Z,99560.19
2023-02-20T11:10:17.608Z,99565.16
2023-02-20T11:12:52.242Z,99558.34
2023-02-20T11:15:25.097Z,99562.73
2023-02-20T11:17:53.105Z,99563.41
2023-02-20T11:20:34.597Z,99560.18
2023-02-20T11:23:01.640Z,99555.45
2023-02-20T11:25:34.928Z,99563.04
2023-02-20T11:28:20.764Z,99561.25
2023-02-20T11:30:49.528Z,99558.32
2023-02-20T11:33:23.854Z,99550.05
2023-02-20T11:35:52.672Z,99552.75
2023-02-20T11:38:22.160Z,99556.02
2023-02-20T11:40:52.367Z,99553.27
2023-02-20T11:43:36.738Z,99547.80
2023-02-20T11:46:13.017Z,99545.35
2023-02-20T11:48:56.292Z,99549.37
2023-02-20T11:51:37.680Z,99542.50
2023-02-20T11:54:17.446Z,99543.52
2023-02-20T11:57:14.627Z,99538.86
2023-02-20T11:59:45.524Z,99539.72
2023-02-20T12:02:16.510Z,99538.27
2023-02-20T12:04:44.324Z,99536.80
2023-02-20T12:07:24.113Z,99531.89
2023-02-20T12:09:50.844Z,99531.51
2023-02-20T12:12:23.058Z,99529.94
2023-02-20T12:14:50.311Z,99525.17
2023-02-20T12:17:26.044Z,99525.77
2023-02-20T12:20:14.609Z,99526.38
2023-02-20T12:22:45.220Z,99528.33
2023-02-20T12:25:24.480Z,99520.25
2023-02-20T12:28:21.758Z,99520.06
2023-02-20T12:31:10.847Z,99519.30
2023-02-20T12:33:43.773Z,99517.45
2023-02-20T12:36:36.604Z,99518.14
2023-02-20T12:39:23.507Z,99510.39
2023-02-20T12:41:58.938Z,99512.29
2023-02-20T12:44:36.733Z,99505.58
2023-02-20T12:47:12.414Z,99498.13
2023-02-20T12:49:44.985Z,99499.46
2023-02-20T12:52:31.022Z,99491.55
2023-02-20T12:55:12.409Z,99494.05
2023-02-20T12:57:44.984Z,99493.89
2023-02-20T13:00:45.982Z,99505.05
2023-02-20T13:03:23.713Z,99502.23
2023-02-20T13:05:53.433Z,99498.23
2023-02-20T13:08:30.645Z,99504.95
2023-02-20T13:11:06.445Z,99498.30
2023-02-20T13:13:43.927Z,99490.69
2023-02-20T13:16:19.174Z,99486.48
2023-02-20T13:18:53.691Z,99487.98
2023-02-20T13:21:23.228Z,99478.27
2023-02-20T13:23:52.536Z,99479.41
2023-02-20T13:26:34.884Z,99472.48
2023-02-20T13:29:15.517Z,99466.20
2023-02-20T13:31:43.720Z,99460.77
2023-02-20T13:34:10.655Z,99454.08
2023-02-20T13:36:41.970Z,99450.16
2023-02-20T13:39:20.696Z,99451.20
2023-02-20T13:41:53.657Z,99449.50
2023-02-20T13:44:35.918Z,99448.83
2023-02-20T13:47:22.265Z,99450.90
2023-02-20T13:49:59.395Z,99458.79
2023-02-20T13:52:47.572Z,99452.77
2023-02-20T13:55:24.043Z,99447.23
2023-02-20T13:57:56.101Z,99438.15
2023-02-20T14:00:29.510Z,99431.73
2023-02-20T14:02:56.546Z,99429.67
2023-02-20T14:05:30.974Z,99422.48
2023-02-20T15:20:37.090Z,99331.77
2023-02-20T15:23:15.573Z,99325.33
2023-02-20T15:25:42.996Z,99321.39
2023-02-20T15:28:27.561Z,99317.43
2023-02-20T15:31:20.662Z,99305.20
2023-02-20T15:33:53.875Z,99300.45
2023-02-20T15:36:23.275Z,99291.89
2023-02-20T15:38:55.270Z,99285.35
2023-02-20T15:41:22.824Z,99279.00
2023-02-20T15:43:51.458Z,99278.93
2023-02-20T15:46:18.663Z,99274.23
2023-02-20T15:48:45.224Z,99272.11
2023-02-20T15:51:14.354Z,99260.31
2023-02-20T15:53:42.244Z,99262.04
2023-02-20T15:56:09.685Z,99261.58
2023-02-20T15:58:38.024Z,99257.73
2023-02-20T16:01:04.869Z,99257.71
2023-02-20T16:03:41.732Z,99257.64
2023-02-20T16:06:16.327Z,99259.45
2023-02-20T16:08:44.630Z,99260.38
2023-02-20T16:11:11.705Z,99261.77
2023-02-20T16:13:39.487Z,99253.08
2023-02-20T16:16:23.165Z,99254.09
2023-02-20T16:18:53.759Z,99249.33
2023-02-20T16:21:22.701Z,99243.98
2023-02-20T16:23:49.636Z,99242.36
2023-02-20T16:26:24.922Z,99244.25
2023-02-20T16:28:56.055Z,99242.20
2023-02-20T16:31:25.200Z,99233.78
2023-02-20T16:33:51.950Z,99230.10
2023-02-20T16:36:24.592Z,99226.52
2023-02-20T16:38:51.576Z,99223.80
2023-02-20T16:41:18.384Z,99223.42
2023-02-20T16:43:44.998Z,99218.23
2023-02-20T16:46:12.350Z,99205.95
2023-02-20T16:48:42.743Z,99192.17
2023-02-20T16:51:10.902Z,99191.75
2023-02-20T16:53:37.649Z,99186.94
2023-02-20T16:56:05.313Z,99180.74
2023-02-20T16:58:31.912Z,99178.52
2023-02-20T17:00:58.711Z,99171.53
2023-02-20T17:03:27.084Z,99167.95
2023-02-20T17:05:58.740Z,99171.82
2023-02-20T17:08:28.774Z,99168.70
2023-02-20T17:10:58.736Z,99170.23
2023-02-20T17:13:27.903Z,99169.98
2023-02-20T17:15:54.524Z,99159.89
2023-02-20T17:18:26.030Z,99149.08
2023-02-20T17:20:52.815Z,99146.79
2023-02-20T17:23:21.847Z,99147.42
2023-02-20T17:25:48.588Z,99138.47
2023-02-20T17:28:15.503Z,99132.73
2023-02-20T17:30:42.202Z,99126.95
2023-02-20T17:33:08.969Z,99121.29
2023-02-20T17:35:35.699Z,99116.31
2023-02-20T17:38:03.026Z,99113.77
2023-02-20T17:40:32.470Z,99103.28
2023-02-20T17:42:59.181Z,99093.27
2023-02-20T17:45:25.748Z,99085.27
2023-02-20T17:47:52.263Z,99075.39
2023-02-20T17:50:19.085Z,99070.13
2023-02-20T17:52:46.532Z,99058.23
2023-02-20T17:55:17.519Z,99052.02
2023-02-20T17:57:44.374Z,99047.31
2023-02-20T18:00:11.578Z,99049.12
2023-02-20T18:02:39.037Z,99044.54
2023-02-20T18:05:05.679Z,99036.88
2023-02-20T18:07:34.544Z,99025.39
2023-02-20T18:10:01.750Z,99015.56
2023-02-20T18:12:33.667Z,99007.52
2023-02-20T18:15:01.441Z,98997.48
2023-02-20T18:17:28.223Z,98985.66
2023-02-20T18:19:54.903Z,98976.98
2023-02-20T18:22:21.564Z,98970.35
2023-02-20T18:24:50.344Z,98953.89
2023-02-20T18:27:16.976Z,98941.36
2023-02-20T18:29:43.566Z,98934.48
2023-02-20T18:32:10.187Z,98916.86
2023-02-20T18:34:37.062Z,98912.25
2023-02-20T18:37:03.663Z,98906.16
2023-02-20T18:39:30.291Z,98893.55
2023-02-20T18:41:58.300Z,98884.36
2023-02-20T18:44:25.243Z,98876.27
2023-02-20T18:46:52.524Z,98868.33
2023-02-20T18:49:19.309Z,98873.30
2023-02-20T18:51:45.913Z,98861.75
2023-02-20T18:54:17.866Z,98850.50
2023-02-20T18:56:46.083Z,98835.45
2023-02-20T18:59:12.624Z,98826.73
2023-02-20T19:01:42.403Z,98816.61
2023-02-20T19:04:10.329Z,98804.63
2023-02-20T19:06:39.786Z,98794.49
2023-02-20T19:09:07.780Z,98786.77
2023-02-20T19:11:35.112Z,98767.02
2023-02-20T19:14:01.610Z,98756.38
2023-02-20T19:16:28.770Z,98744.52
2023-02-20T19:18:55.504Z,98731.64
2023-02-20T19:21:22.132Z,98724.95
2023-02-20T19:23:48.891Z,98709.55
2023-02-20T19:26:16.018Z,98700.58
2023-02-20T19:29:02.779Z,98692.43
2023-02-20T19:31:31.845Z,98681.96
2023-02-20T19:33:59.644Z,98668.29
2023-02-20T19:36:26.389Z,98673.33
2023-02-20T19:38:53.065Z,98671.11
2023-02-20T19:41:19.705Z,98654.48
2023-02-20T19:43:46.756Z,98643.63
2023-02-20T19:46:17.544Z,98633.51
2023-02-20T19:48:45.534Z,98635.11
2023-02-20T19:51:12.989Z,98625.31
2023-02-20T19:53:41.906Z,98602.95
2023-02-20T19:56:08.765Z,98574.16
2023-02-20T19:58:39.214Z,98557.09
2023-02-20T20:01:15.983Z,98578.54
2023-02-20T20:03:46.138Z,98592.63
2023-02-20T20:06:15.170Z,98577.00
2023-02-20T20:09:01.911Z,98534.28
2023-02-20T20:11:28.906Z,98502.52
2023-02-20T20:13:55.915Z,98531.80
2023-02-20T20:16:23.771Z,98550.80
2023-02-20T20:18:52.625Z,98543.19
2023-02-20T20:21:22.252Z,98538.89
2023-02-20T20:23:53.736Z,98513.41
2023-02-20T20:26:25.402Z,98476.92
2023-02-20T20:28:52.173Z,98468.55
2023-02-20T20:31:20.253Z,98483.39
2023-02-20T20:33:47.103Z,98491.69
2023-02-20T20:36:14.441Z,98483.05
2023-02-20T20:38:42.051Z,98463.88
2023-02-20T20:41:09.534Z,98453.30
2023-02-20T20:43:36.234Z,98443.76
2023-02-20T20:46:03.567Z,98438.19
2023-02-20T20:48:34.147Z,98430.09
2023-02-20T20:51:01.180Z,98429.16
2023-02-20T20:53:28.779Z,98414.45
2023-02-20T20:55:56.274Z,98401.25
2023-02-20T20:58:23.249Z,98389.85
2023-02-20T21:00:50.246Z,98374.98
2023-02-20T21:03:19.239Z,98377.65
2023-02-20T21:05:45.904Z,98378.15
2023-02-20T21:08:15.836Z,98373.36
2023-02-20T21:10:42.528Z,98366.28
2023-02-20T21:13:11.578Z,98359.79
2023-02-20T21:15:39.009Z,98358.72
2023-02-20T21:18:05.630Z,98352.44
2023-02-20T21:20:35.886Z,98348.52
2023-02-20T21:23:04.369Z,98344.16
2023-02-20T21:25:31.066Z,98348.38
2023-02-20T21:27:57.888Z,98349.77
2023-02-20T21:30:27.569Z,98350.69
2023-02-20T21:32:55.457Z,98332.00
2023-02-20T21:35:22.842Z,98331.67
2023-02-20T21:37:49.823Z,98326.63
2023-02-20T21:40:16.948Z,98324.91
2023-02-20T21:43:02.489Z,98316.70
2023-02-20T21:45:29.042Z,98314.24
2023-02-20T21:47:56.069Z,98309.08
2023-02-20T21:50:22.687Z,98304.10
2023-02-20T21:52:50.925Z,98294.21
2023-02-20T21:55:17.820Z,98290.64
2023-02-20T21:57:44.558Z,98278.29
2023-02-20T22:00:11.923Z,98277.94
2023-02-20T22:02:38.414Z,98276.55
2023-02-20T22:05:07.203Z,98264.54
2023-02-20T22:07:52.929Z,98252.23
2023-02-20T22:10:38.613Z,98243.20
2023-02-20T22:13:24.342Z,98238.40
2023-02-20T22:16:12.908Z,98236.62
2023-02-20T22:18:59.152Z,98231.21
2023-02-20T22:21:44.257Z,98233.64
2023-02-20T22:24:37.863Z,98224.18
2023-02-20T22:27:25.941Z,98220.32
2023-02-20T22:30:11.528Z,98211.11
2023-02-20T22:32:58.000Z,98214.95
2023-02-20T22:35:43.179Z,98213.80
2023-02-20T22:38:28.621Z,98219.59
2023-02-20T22:41:14.001Z,98212.45
2023-02-20T22:43:59.556Z,98202.84
2023-02-20T22:46:45.123Z,98202.08
2023-02-20T22:49:30.498Z,98197.06
2023-02-20T22:52:16.051Z,98193.50
2023-02-20T22:55:05.867Z,98184.89
2023-02-20T22:57:54.478Z,98181.27
2023-02-20T23:00:41.715Z,98179.06
2023-02-20T23:03:27.187Z,98176.91
2023-02-20T23:06:18.093Z,98172.59
2023-02-20T23:09:05.746Z,98161.20
2023-02-20T23:11:52.426Z,98161.56
2023-02-20T23:14:38.055Z,98157.16
2023-02-20T23:17:34.899Z,98147.14
2023-02-20T23:20:27.131Z,98143.05
2023-02-20T23:23:12.533Z,98134.97
2023-02-20T23:25:58.068Z,98129.06
2023-02-20T23:28:43.339Z,98139.59
2023-02-20T23:31:28.716Z,98138.88
2023-02-20T23:34:14.111Z,98141.50
2023-02-20T23:37:10.722Z,98139.33
2023-02-20T23:39:56.223Z,98144.38
2023-02-20T23:42:41.607Z,98121.92
2023-02-20T23:45:27.229Z,98126.02
2023-02-20T23:48:12.904Z,98123.80
2023-02-20T23:50:58.476Z,98128.16
2023-02-20T23:53:43.912Z,98124.83
2023-02-20T23:56:29.151Z,98115.13
2023-02-20T23:59:14.723Z,98127.57
